Time;durP1;ratioP1;P1;durP2;ratioP2;P2;SDS_P1;SDS_P2;PMS_P1;PMS_P2;Temp;Humidity;BMP_temperature;BMP_pressure;BME280_temperature;BME280_humidity;BME280_pressure;Samples;Min_cycle;Max_cycle;Signal;HPM_P1;HPM_P2
2022/11/23 00:01:28;;;;;;;10.70;7.40;;;;;;;8.17;100.00;93224.13;5034022;28;20189;-63
2022/11/23 00:03:59;;;;;;;13.20;8.10;;;;;;;8.18;100.00;93223.16;5051797;28;20197;-65
2022/11/23 00:06:25;;;;;;;8.27;6.47;;;;;;;8.18;100.00;93209.72;5059509;22;20308;-62
2022/11/23 00:08:52;;;;;;;11.93;7.67;;;;;;;8.07;100.00;93200.66;5051626;28;20608;-64
2022/11/23 00:11:18;;;;;;;13.53;8.33;;;;;;;7.91;100.00;93200.56;5051438;28;20255;-62
2022/11/23 00:13:44;;;;;;;13.47;7.73;;;;;;;7.82;100.00;93206.50;5051399;28;20535;-64
2022/11/23 00:16:15;;;;;;;10.07;7.03;;;;;;;7.59;100.00;93202.91;5051965;28;20288;-63
2022/11/23 00:18:42;;;;;;;8.80;6.53;;;;;;;7.51;100.00;93207.91;5051378;28;20632;-64
2022/11/23 00:21:10;;;;;;;9.97;7.00;;;;;;;7.78;100.00;93217.88;5033681;28;20622;-63
2022/11/23 00:23:36;;;;;;;12.07;7.13;;;;;;;7.81;100.00;93221.84;5051353;28;20242;-63
2022/11/23 00:26:03;;;;;;;8.97;6.83;;;;;;;7.81;100.00;93222.66;5070379;23;20221;-62
2022/11/23 00:28:28;;;;;;;7.70;5.53;;;;;;;7.88;100.00;93231.22;5051530;28;20231;-63
2022/11/23 00:30:54;;;;;;;12.40;6.10;;;;;;;7.94;100.00;93217.97;5051371;28;20209;-64
2022/11/23 00:33:19;;;;;;;7.70;5.80;;;;;;;7.99;100.00;93204.88;5051277;28;20217;-61
2022/11/23 00:35:45;;;;;;;12.00;7.03;;;;;;;8.25;100.00;93241.09;5051321;28;20214;-63
2022/11/23 00:38:10;;;;;;;8.50;6.40;;;;;;;8.11;100.00;93239.91;5051637;28;20276;-59
2022/11/23 00:40:36;;;;;;;9.57;6.70;;;;;;;8.08;100.00;93216.63;5049903;28;20205;-65
2022/11/23 00:43:01;;;;;;;14.63;6.37;;;;;;;7.99;100.00;93209.94;5049013;28;20659;-63
2022/11/23 00:45:27;;;;;;;10.47;6.90;;;;;;;7.89;100.00;93199.13;5051344;28;20210;-62
2022/11/23 00:47:52;;;;;;;10.53;6.50;;;;;;;7.77;100.00;93210.44;5051097;28;20263;-64
2022/11/23 00:50:24;;;;;;;9.10;6.40;;;;;;;7.83;100.00;93214.91;5051072;28;20224;-58
2022/11/23 00:52:49;;;;;;;9.53;6.63;;;;;;;7.78;100.00;93227.22;5051116;28;20737;-65
2022/11/23 00:55:14;;;;;;;9.27;6.43;;;;;;;7.69;100.00;93228.09;5050851;28;20284;-58
2022/11/23 00:57:40;;;;;;;12.00;6.93;;;;;;;7.64;100.00;93218.41;5049703;28;20189;-62
2022/11/23 01:00:06;;;;;;;7.37;5.43;;;;;;;7.89;100.00;93204.19;5049718;28;20695;-62
2022/11/23 01:02:34;;;;;;;7.90;6.03;;;;;;;7.96;100.00;93211.00;5076459;22;20266;-62
2022/11/23 01:05:00;;;;;;;9.67;6.93;;;;;;;7.96;100.00;93180.66;5070633;28;20204;-59
2022/11/23 01:07:29;;;;;;;8.40;5.90;;;;;;;8.14;100.00;93186.44;5070940;28;20204;-64
2022/11/23 01:09:54;;;;;;;7.47;6.03;;;;;;;8.23;100.00;93203.25;5052688;28;20240;-63
2022/11/23 01:12:20;;;;;;;12.10;6.90;;;;;;;8.09;100.00;93208.09;5071023;28;20265;-64
2022/11/23 01:14:45;;;;;;;11.30;6.17;;;;;;;8.10;100.00;93213.00;5070620;28;20196;-62
2022/11/23 01:17:12;;;;;;;8.60;6.27;;;;;;;8.24;100.00;93217.50;5071203;28;20670;-61
2022/11/23 01:19:37;;;;;;;10.77;6.10;;;;;;;8.18;100.00;93210.50;5052698;28;20212;-63
2022/11/23 01:22:03;;;;;;;7.57;6.07;;;;;;;8.29;100.00;93205.22;5052698;28;20191;-66
2022/11/23 01:24:28;;;;;;;8.30;6.47;;;;;;;8.44;100.00;93197.84;5070574;28;20246;-63
2022/11/23 01:26:54;;;;;;;10.40;5.57;;;;;;;8.40;100.00;93187.22;5052728;28;20189;-62
2022/11/23 01:29:21;;;;;;;7.70;6.07;;;;;;;8.63;100.00;93195.03;5070633;28;20201;-60
2022/11/23 01:31:47;;;;;;;8.17;5.57;;;;;;;8.45;100.00;93185.03;5070834;28;20712;-62
2022/11/23 01:34:13;;;;;;;10.00;5.73;;;;;;;8.32;100.00;93184.66;5070489;28;20216;-59
2022/11/23 01:36:39;;;;;;;11.70;6.20;;;;;;;8.24;100.00;93199.78;5052748;28;20242;-62
2022/11/23 01:39:05;;;;;;;10.87;5.67;;;;;;;8.19;100.00;93194.38;5070088;28;20659;-63
2022/11/23 01:41:36;;;;;;;8.93;6.13;;;;;;;8.22;100.00;93206.72;5052467;28;20201;-62
2022/11/23 01:44:31;;;;;;;7.87;5.77;;;;;;;8.28;100.00;93206.16;5070197;28;20197;-62
2022/11/23 01:47:06;;;;;;;7.67;5.83;;;;;;;8.17;100.00;93205.59;5070613;28;20196;-63
2022/11/23 01:49:50;;;;;;;9.97;6.03;;;;;;;8.42;100.00;93207.34;5070277;28;20685;-58
2022/11/23 01:52:21;;;;;;;6.63;5.47;;;;;;;8.59;100.00;93220.81;5052167;28;20188;-61
2022/11/23 01:54:53;;;;;;;9.47;6.00;;;;;;;8.39;100.00;93197.50;5071500;28;20200;-61
2022/11/23 01:57:31;;;;;;;10.30;6.47;;;;;;;8.25;100.00;93205.66;5073663;28;20195;-62
2022/11/23 01:59:57;;;;;;;8.63;5.97;;;;;;;8.43;100.00;93209.69;5073582;28;20295;-62
2022/11/23 02:02:26;;;;;;;8.87;6.10;;;;;;;8.54;100.00;93205.31;5073741;28;20254;-63
2022/11/23 02:04:52;;;;;;;9.40;6.23;;;;;;;8.59;100.00;93203.09;5073549;28;20213;-62
2022/11/23 02:07:20;;;;;;;9.80;6.87;;;;;;;8.34;100.00;93195.41;5073543;28;20212;-58
2022/11/23 02:09:47;;;;;;;9.93;6.70;;;;;;;8.27;100.00;93191.91;5073508;28;20212;-58
2022/11/23 02:12:13;;;;;;;9.87;6.67;;;;;;;8.23;100.00;93193.13;5055496;28;20201;-58
2022/11/23 02:14:40;;;;;;;8.40;6.10;;;;;;;8.45;100.00;93192.63;5073397;28;20208;-61
2022/11/23 02:17:05;;;;;;;8.13;6.20;;;;;;;8.59;100.00;93195.50;5073940;28;20616;-62
2022/11/23 02:19:46;;;;;;;9.20;6.23;;;;;;;8.59;100.00;93195.50;5073347;28;20248;-62
2022/11/23 02:22:19;;;;;;;9.00;6.20;;;;;;;8.50;100.00;93198.97;5074495;28;20650;-63
2022/11/23 02:24:51;;;;;;;10.67;6.80;;;;;;;8.41;100.00;93188.00;5073310;28;20288;-63
2022/11/23 02:27:18;;;;;;;10.03;6.77;;;;;;;8.10;100.00;93177.56;5073324;28;20189;-65
2022/11/23 02:29:45;;;;;;;11.43;6.83;;;;;;;8.23;100.00;93185.53;5073167;28;20196;-59
2022/11/23 02:32:11;;;;;;;11.00;6.70;;;;;;;8.18;100.00;93175.06;5073422;28;20245;-65
2022/11/23 02:34:37;;;;;;;10.70;6.80;;;;;;;8.12;100.00;93167.31;5055203;28;20288;-59
2022/11/23 02:37:02;;;;;;;9.10;6.83;;;;;;;8.07;100.00;93164.44;5055503;28;20212;-61
2022/11/23 02:39:39;;;;;;;8.67;6.67;;;;;;;8.06;100.00;93150.97;5073425;28;20227;-60
2022/11/23 02:42:05;;;;;;;9.03;6.77;;;;;;;8.08;100.00;93135.66;5074047;28;20193;-65
2022/11/23 02:44:52;;;;;;;9.40;6.97;;;;;;;7.99;100.00;93144.16;5055466;28;20237;-65
2022/11/23 02:47:18;;;;;;;8.93;6.80;;;;;;;8.14;100.00;93143.41;5055156;28;20192;-63
2022/11/23 02:49:48;;;;;;;9.90;7.10;;;;;;;8.35;100.00;93140.53;5072833;28;20203;-64
2022/11/23 02:52:14;;;;;;;9.37;6.87;;;;;;;8.28;100.00;93132.75;5073059;28;20192;-64
2022/11/23 02:54:40;;;;;;;9.70;6.60;;;;;;;8.14;100.00;93118.09;5073667;28;20204;-64
2022/11/23 02:57:06;;;;;;;12.37;8.63;;;;;;;7.95;100.00;93103.19;5073745;28;20503;-62
2022/11/23 02:59:32;;;;;;;14.90;8.40;;;;;;;7.79;100.00;93107.38;5054766;28;20308;-63
2022/11/23 03:01:59;;;;;;;18.50;11.43;;;;;;;7.60;100.00;93118.50;5073819;28;20207;-66
2022/11/23 03:04:24;;;;;;;15.50;8.60;;;;;;;7.22;100.00;93114.66;5055217;28;20196;-62
2022/11/23 03:06:50;;;;;;;15.43;9.40;;;;;;;7.10;100.00;93133.50;5072604;28;20626;-66
2022/11/23 03:09:15;;;;;;;12.80;8.80;;;;;;;7.14;100.00;93128.94;5072797;28;20225;-67
2022/11/23 03:11:40;;;;;;;12.97;8.10;;;;;;;7.47;100.00;93090.31;5073179;28;20702;-63
2022/11/23 03:14:06;;;;;;;12.60;7.83;;;;;;;7.41;100.00;93083.34;5072846;28;20209;-63
2022/11/23 03:16:32;;;;;;;10.73;7.83;;;;;;;7.25;100.00;93093.34;5072695;28;20185;-60
2022/11/23 03:18:58;;;;;;;15.07;6.67;;;;;;;7.04;100.00;93111.38;5054442;28;20216;-62
2022/11/23 03:21:24;;;;;;;10.57;7.60;;;;;;;7.07;100.00;93123.69;5054332;28;20246;-63
2022/11/23 03:23:49;;;;;;;13.87;8.53;;;;;;;7.08;100.00;93096.69;5072334;28;20188;-65
2022/11/23 03:26:15;;;;;;;12.53;8.20;;;;;;;7.22;100.00;93083.53;5072207;28;20189;-64
2022/11/23 03:28:40;;;;;;;13.60;8.23;;;;;;;6.99;100.00;93121.09;5072506;28;20257;-64
2022/11/23 03:31:06;;;;;;;11.33;8.90;;;;;;;6.99;100.00;93116.06;5072169;28;20219;-61
2022/11/23 03:33:31;;;;;;;10.53;7.97;;;;;;;6.95;100.00;93111.47;5072134;28;20211;-63
2022/11/23 03:35:57;;;;;;;11.60;7.40;;;;;;;7.20;100.00;93103.09;5072369;28;20707;-64
2022/11/23 03:38:22;;;;;;;10.07;7.60;;;;;;;7.34;100.00;93088.19;5054153;28;20177;-58
2022/11/23 03:40:47;;;;;;;11.17;8.10;;;;;;;7.31;100.00;93105.41;5072017;28;20217;-64
2022/11/23 03:43:14;;;;;;;11.20;7.73;;;;;;;7.40;100.00;93122.97;5072090;28;20261;-59
2022/11/23 03:45:40;;;;;;;11.57;8.00;;;;;;;7.17;100.00;93081.44;5072069;28;20209;-62
2022/11/23 03:48:05;;;;;;;12.73;7.63;;;;;;;7.15;100.00;93080.03;5071956;28;20181;-62
2022/11/23 03:50:30;;;;;;;11.07;7.50;;;;;;;7.48;100.00;93091.91;5071783;28;20205;-65
2022/11/23 03:52:56;;;;;;;11.47;7.60;;;;;;;7.47;100.00;93092.84;5071967;28;20654;-58
2022/11/23 03:55:22;;;;;;;11.90;7.93;;;;;;;7.62;100.00;93081.22;5071913;28;20209;-58
2022/11/23 03:57:48;;;;;;;11.00;6.97;;;;;;;7.55;100.00;93075.97;5053824;28;20196;-59
2022/11/23 04:00:14;;;;;;;10.03;7.63;;;;;;;7.47;100.00;93073.41;5071711;28;20682;-63
2022/11/23 04:02:40;;;;;;;10.23;6.93;;;;;;;7.39;100.00;93068.31;5071773;28;20203;-62
2022/11/23 04:05:06;;;;;;;11.07;7.47;;;;;;;7.63;100.00;93068.41;5071626;28;20226;-63
2022/11/23 04:07:32;;;;;;;12.53;7.63;;;;;;;7.62;100.00;93073.63;5071589;28;20242;-62
2022/11/23 04:09:57;;;;;;;11.37;7.73;;;;;;;7.43;100.00;93087.28;5071495;28;20197;-61
2022/11/23 04:12:23;;;;;;;11.30;8.07;;;;;;;7.57;100.00;93074.06;5071639;28;20233;-62
2022/11/23 04:14:48;;;;;;;11.87;7.83;;;;;;;7.60;100.00;93083.91;5071553;28;20698;-63
2022/11/23 04:17:14;;;;;;;10.27;8.10;;;;;;;7.57;100.00;93076.59;5071385;28;20185;-59
2022/11/23 04:19:39;;;;;;;10.80;7.50;;;;;;;7.54;100.00;93060.97;5052583;28;20605;-58
2022/11/23 04:22:04;;;;;;;9.73;7.07;;;;;;;7.64;100.00;93085.19;5071612;28;20200;-62
2022/11/23 04:24:30;;;;;;;10.67;7.47;;;;;;;7.32;100.00;93076.63;5071324;28;20204;-59
2022/11/23 04:26:55;;;;;;;11.33;7.37;;;;;;;7.09;100.00;93078.88;5071415;28;20181;-58
2022/11/23 04:29:27;;;;;;;12.13;7.67;;;;;;;6.94;100.00;93085.41;5071278;28;20573;-63
2022/11/23 04:31:53;;;;;;;11.67;8.03;;;;;;;7.19;100.00;93088.88;5071161;28;20197;-59
2022/11/23 04:34:19;;;;;;;10.70;7.33;;;;;;;7.53;100.00;93082.91;5071341;28;20265;-57
2022/11/23 04:36:44;;;;;;;12.53;8.50;;;;;;;7.27;100.00;93076.31;5071442;28;20250;-64
2022/11/23 04:39:14;;;;;;;12.53;8.13;;;;;;;7.19;100.00;93068.69;5071139;28;20638;-62
2022/11/23 04:41:39;;;;;;;12.80;8.20;;;;;;;7.38;100.00;93059.16;5070915;28;20616;-63
2022/11/23 04:44:05;;;;;;;16.43;9.40;;;;;;;7.59;100.00;93084.06;5071159;28;20273;-62
2022/11/23 04:46:31;;;;;;;12.73;9.33;;;;;;;7.36;100.00;93088.84;5070190;28;20194;-64
2022/11/23 04:48:56;;;;;;;12.83;9.20;;;;;;;7.08;100.00;93082.34;5052861;28;20626;-64
2022/11/23 04:51:22;;;;;;;17.73;10.17;;;;;;;7.37;100.00;93109.84;5071004;28;20189;-63
2022/11/23 04:53:48;;;;;;;17.47;10.67;;;;;;;7.13;100.00;93100.38;5070875;28;20177;-65
2022/11/23 04:56:13;;;;;;;15.23;8.97;;;;;;;7.04;100.00;93101.25;5071318;28;20254;-65
2022/11/23 04:58:39;;;;;;;13.43;9.00;;;;;;;7.03;100.00;93114.03;5070775;28;20196;-63
2022/11/23 05:01:04;;;;;;;15.33;9.63;;;;;;;7.03;100.00;93124.16;5070839;28;20208;-64
2022/11/23 05:03:30;;;;;;;13.07;8.90;;;;;;;7.39;100.00;93138.31;5070673;28;20220;-62
2022/11/23 05:05:58;;;;;;;15.60;9.80;;;;;;;7.55;100.00;93130.81;5070854;28;20510;-66
2022/11/23 05:08:24;;;;;;;14.03;9.87;;;;;;;7.26;100.00;93120.19;5052530;28;20262;-64
2022/11/23 05:10:49;;;;;;;14.10;10.50;;;;;;;7.16;100.00;93124.53;5070531;28;20224;-62
2022/11/23 05:13:14;;;;;;;11.30;8.60;;;;;;;7.16;100.00;93127.88;5070733;28;20189;-62
2022/11/23 05:15:40;;;;;;;14.13;8.73;;;;;;;7.18;100.00;93131.03;5070510;28;20266;-65
2022/11/23 05:18:06;;;;;;;12.33;9.23;;;;;;;7.19;100.00;93127.56;5052663;28;20189;-64
2022/11/23 05:20:33;;;;;;;14.77;8.93;;;;;;;7.28;100.00;93125.91;5070626;28;20225;-63
2022/11/23 05:22:59;;;;;;;12.80;9.37;;;;;;;7.29;100.00;93119.91;5070542;28;20185;-63
2022/11/23 05:25:25;;;;;;;11.90;8.83;;;;;;;7.37;100.00;93119.97;5070581;28;20217;-63
2022/11/23 05:27:50;;;;;;;12.23;8.33;;;;;;;7.65;100.00;93123.91;5052707;28;20275;-63
2022/11/23 05:30:16;;;;;;;12.03;9.07;;;;;;;7.69;100.00;93117.63;5072525;28;20234;-58
2022/11/23 05:32:41;;;;;;;12.40;8.87;;;;;;;7.79;100.00;93125.88;5074146;28;20185;-63
2022/11/23 05:35:07;;;;;;;13.70;8.27;;;;;;;7.63;100.00;93105.56;5073695;28;20208;-63
2022/11/23 05:37:33;;;;;;;15.73;9.43;;;;;;;7.48;100.00;93110.38;5073809;28;20669;-63
2022/11/23 05:39:59;;;;;;;11.57;8.80;;;;;;;7.59;100.00;93109.34;5073602;28;20362;-62
2022/11/23 05:42:27;;;;;;;11.97;9.07;;;;;;;7.97;100.00;93113.94;5073912;28;20784;-62
2022/11/23 05:44:53;;;;;;;10.90;9.20;;;;;;;7.79;100.00;93118.31;5073624;28;20692;-58
2022/11/23 05:47:18;;;;;;;15.87;10.03;;;;;;;7.64;100.00;93104.63;5073819;28;20567;-59
2022/11/23 05:49:44;;;;;;;14.50;9.93;;;;;;;7.61;100.00;93099.88;5055627;28;20341;-60
2022/11/23 05:52:09;;;;;;;15.40;10.53;;;;;;;7.42;100.00;93110.19;5073816;28;20185;-60
2022/11/23 05:54:35;;;;;;;15.03;10.13;;;;;;;7.58;100.00;93108.56;5073627;28;20734;-58
2022/11/23 05:57:00;;;;;;;16.63;10.40;;;;;;;7.71;100.00;93103.09;5073580;28;20196;-63
2022/11/23 05:59:25;;;;;;;16.10;11.80;;;;;;;7.62;100.00;93114.09;5073851;28;20298;-63
2022/11/23 06:01:51;;;;;;;16.90;11.53;;;;;;;7.74;100.00;93134.88;5073436;28;20192;-64
2022/11/23 06:04:16;;;;;;;17.63;12.13;;;;;;;7.68;100.00;93136.25;5073585;28;20205;-63
2022/11/23 06:06:42;;;;;;;17.07;11.23;;;;;;;7.82;100.00;93135.69;5073897;28;20711;-63
2022/11/23 06:09:08;;;;;;;14.63;10.80;;;;;;;7.73;100.00;93116.38;5055267;28;20343;-58
2022/11/23 06:11:34;;;;;;;19.97;11.70;;;;;;;8.14;100.00;93100.41;5073753;28;20211;-62
2022/11/23 06:13:59;;;;;;;18.60;11.97;;;;;;;8.39;100.00;93106.34;5073543;28;20188;-63
2022/11/23 06:16:25;;;;;;;15.63;11.00;;;;;;;8.23;100.00;93113.88;5073538;28;20219;-63
2022/11/23 06:18:50;;;;;;;15.07;11.03;;;;;;;8.00;100.00;93123.75;5072966;28;20686;-64
2022/11/23 06:21:15;;;;;;;13.33;10.80;;;;;;;8.06;100.00;93125.66;5073330;28;20185;-64
2022/11/23 06:23:41;;;;;;;16.87;11.60;;;;;;;8.14;100.00;93133.28;5073374;28;20193;-65
2022/11/23 06:26:06;;;;;;;15.53;12.33;;;;;;;7.88;100.00;93152.03;5073621;28;20254;-63
2022/11/23 06:28:34;;;;;;;22.20;12.43;;;;;;;7.90;100.00;93130.66;5073428;28;20188;-63
2022/11/23 06:31:05;;;;;;;19.20;12.43;;;;;;;8.12;100.00;93130.13;5073336;28;20304;-64
2022/11/23 06:33:31;;;;;;;15.37;12.40;;;;;;;7.90;100.00;93152.66;5055339;28;20213;-64
2022/11/23 06:35:59;;;;;;;19.30;13.63;;;;;;;7.57;100.00;93131.47;5073438;28;20243;-62
2022/11/23 06:38:25;;;;;;;22.10;14.27;;;;;;;7.69;100.00;93110.03;5073127;28;20260;-64
2022/11/23 06:40:50;;;;;;;21.43;13.60;;;;;;;8.06;100.00;93135.03;5071919;28;20224;-63
2022/11/23 06:43:16;;;;;;;16.63;12.50;;;;;;;8.15;100.00;93146.75;5073025;28;20192;-59
2022/11/23 06:45:41;;;;;;;15.43;12.20;;;;;;;8.10;100.00;93126.94;5054950;28;20257;-59
2022/11/23 06:48:07;;;;;;;16.70;12.40;;;;;;;8.01;100.00;93110.16;5073148;28;20193;-61
2022/11/23 06:50:33;;;;;;;15.83;12.17;;;;;;;8.26;100.00;93152.34;5073044;28;20209;-66
2022/11/23 06:52:58;;;;;;;17.47;13.13;;;;;;;8.04;100.00;93147.81;5054857;28;20181;-63
2022/11/23 06:55:24;;;;;;;16.93;12.40;;;;;;;8.05;100.00;93108.13;5073007;28;20241;-59
2022/11/23 06:57:50;;;;;;;15.40;12.33;;;;;;;8.29;100.00;93129.28;5072874;28;20200;-64
2022/11/23 07:00:17;;;;;;;14.60;11.43;;;;;;;8.16;100.00;93156.72;5072576;28;20244;-63
2022/11/23 07:02:43;;;;;;;16.60;11.57;;;;;;;8.13;100.00;93143.56;5072476;28;20184;-63
2022/11/23 07:05:08;;;;;;;12.57;10.10;;;;;;;8.53;100.00;93110.00;5072714;28;20209;-58
2022/11/23 07:07:34;;;;;;;15.13;11.30;;;;;;;8.71;100.00;93114.00;5072633;28;20189;-63
2022/11/23 07:09:59;;;;;;;15.53;10.97;;;;;;;8.67;100.00;93144.84;5072521;28;20685;-60
2022/11/23 07:12:26;;;;;;;14.73;11.43;;;;;;;8.68;100.00;93149.78;5054547;28;20192;-59
2022/11/23 07:14:51;;;;;;;15.33;11.53;;;;;;;8.67;100.00;93143.13;5072479;28;20215;-59
2022/11/23 07:17:16;;;;;;;14.13;10.93;;;;;;;8.89;100.00;93134.91;5072659;28;20193;-60
2022/11/23 07:19:42;;;;;;;14.73;10.83;;;;;;;9.15;100.00;93152.53;5054486;28;20269;-63
2022/11/23 07:22:08;;;;;;;14.47;10.17;;;;;;;8.93;100.00;93141.25;5072605;28;20207;-59
2022/11/23 07:24:33;;;;;;;14.20;10.23;;;;;;;8.88;100.00;93122.41;5072339;28;20216;-62
2022/11/23 07:26:58;;;;;;;14.60;11.07;;;;;;;9.28;100.00;93135.09;5072456;28;20192;-59
2022/11/23 07:29:24;;;;;;;12.67;10.73;;;;;;;9.38;100.00;93167.88;5072117;28;20627;-59
2022/11/23 07:31:49;;;;;;;16.53;12.13;;;;;;;9.05;100.00;93154.44;5072080;28;20215;-63
2022/11/23 07:34:15;;;;;;;15.73;12.40;;;;;;;9.06;100.00;93140.81;5072242;28;20240;-60
2022/11/23 07:36:40;;;;;;;15.03;11.97;;;;;;;8.93;100.00;93148.88;5072525;28;20639;-59
2022/11/23 07:39:06;;;;;;;14.80;11.83;;;;;;;8.95;100.00;93161.38;5071777;28;20607;-60
2022/11/23 07:41:32;;;;;;;17.87;13.10;;;;;;;8.92;100.00;93154.09;5072222;28;20220;-60
2022/11/23 07:43:57;;;;;;;17.93;13.80;;;;;;;9.04;100.00;93137.63;5071723;28;20184;-64
2022/11/23 07:46:23;;;;;;;16.63;13.57;;;;;;;9.19;100.00;93136.06;5072448;28;20286;-59
2022/11/23 07:48:49;;;;;;;20.43;14.83;;;;;;;9.52;100.00;93152.81;5071892;28;20290;-59
2022/11/23 07:51:15;;;;;;;15.97;12.77;;;;;;;9.57;100.00;93181.06;5071985;28;20196;-62
2022/11/23 07:53:40;;;;;;;16.93;12.67;;;;;;;9.51;100.00;93163.13;5071354;28;20197;-62
2022/11/23 07:56:06;;;;;;;17.00;13.43;;;;;;;9.68;100.00;93162.94;5072164;28;20200;-62
2022/11/23 07:58:32;;;;;;;17.60;12.37;;;;;;;9.99;100.00;93184.16;5071772;28;20719;-62
2022/11/23 08:00:58;;;;;;;18.90;13.20;;;;;;;9.80;100.00;93168.47;5071748;28;20221;-63
2022/11/23 08:03:23;;;;;;;17.10;13.03;;;;;;;10.34;100.00;93149.94;5071791;28;20276;-63
2022/11/23 08:05:48;;;;;;;15.70;12.07;;;;;;;10.87;100.00;93177.13;5053695;28;20223;-63
2022/11/23 08:08:14;;;;;;;15.97;12.33;;;;;;;11.35;100.00;93209.88;5071566;28;20199;-64
2022/11/23 08:10:39;;;;;;;13.40;11.27;;;;;;;11.59;100.00;93247.91;5071754;28;20587;-63
2022/11/23 08:13:05;;;;;;;16.37;12.10;;;;;;;11.45;100.00;93223.16;5071745;28;20621;-61
2022/11/23 08:15:31;;;;;;;14.37;12.53;;;;;;;11.67;100.00;93207.13;5071519;28;20219;-64
2022/11/23 08:17:59;;;;;;;16.33;12.73;;;;;;;12.32;100.00;93216.72;5071463;28;20275;-63
2022/11/23 08:20:25;;;;;;;15.10;12.13;;;;;;;12.85;100.00;93259.75;5071328;28;20248;-63
2022/11/23 08:22:51;;;;;;;15.47;12.07;;;;;;;13.26;100.00;93265.16;5071436;28;20188;-63
2022/11/23 08:25:17;;;;;;;15.90;11.80;;;;;;;13.57;100.00;93293.78;5071516;28;20209;-63
2022/11/23 08:27:42;;;;;;;15.97;11.33;;;;;;;13.71;100.00;93284.47;5071303;28;20188;-60
2022/11/23 08:30:08;;;;;;;13.40;11.57;;;;;;;14.15;100.00;93295.28;5071401;28;20219;-59
2022/11/23 08:32:34;;;;;;;13.47;11.97;;;;;;;14.15;100.00;93328.50;5053225;28;20185;-60
2022/11/23 08:34:59;;;;;;;15.23;11.30;;;;;;;14.45;100.00;93319.72;5052974;28;20208;-63
2022/11/23 08:37:25;;;;;;;14.53;11.83;;;;;;;14.96;100.00;93387.59;5053278;28;20192;-64
2022/11/23 08:39:50;;;;;;;13.90;11.93;;;;;;;15.09;100.00;93369.72;5078489;22;20707;-62
2022/11/23 08:42:15;;;;;;;12.43;11.02;;;;;;;15.25;100.00;93363.50;5053072;28;20192;-63
2022/11/23 08:44:41;;;;;;;16.15;12.18;;;;;;;15.12;100.00;93381.38;5071179;28;20235;-63
2022/11/23 08:47:06;;;;;;;14.00;12.05;;;;;;;15.21;100.00;93364.88;5052887;28;20717;-63
2022/11/23 08:49:32;;;;;;;14.77;12.50;;;;;;;15.36;100.00;93385.22;5071128;28;20224;-63
2022/11/23 08:51:58;;;;;;;14.35;12.60;;;;;;;15.59;100.00;93401.16;5053019;28;20271;-60
2022/11/23 08:54:24;;;;;;;15.10;13.25;;;;;;;15.38;100.00;93378.16;5071149;28;20216;-65
2022/11/23 08:56:50;;;;;;;16.08;12.65;;;;;;;15.88;100.00;93411.91;5070820;28;20192;-64
2022/11/23 08:59:16;;;;;;;17.38;14.43;;;;;;;15.93;100.00;93417.25;5070766;28;20303;-64
2022/11/23 09:01:42;;;;;;;15.80;13.60;;;;;;;16.22;100.00;93441.75;5070877;28;20181;-64
2022/11/23 09:04:08;;;;;;;17.40;13.13;;;;;;;16.56;100.00;93444.22;5070039;28;20208;-61
2022/11/23 09:06:34;;;;;;;15.80;12.80;;;;;;;16.68;100.00;93437.53;5070870;28;20187;-63
2022/11/23 09:09:00;;;;;;;14.73;13.00;;;;;;;15.73;100.00;93388.19;5070861;28;20181;-64
2022/11/23 09:11:25;;;;;;;16.45;12.70;;;;;;;16.38;100.00;93423.44;5052954;28;20557;-64
2022/11/23 09:13:51;;;;;;;15.85;12.95;;;;;;;16.95;100.00;93466.56;5070812;28;20184;-66
2022/11/23 09:16:17;;;;;;;17.58;12.90;;;;;;;17.23;100.00;93476.66;5070706;28;20614;-62
2022/11/23 09:18:43;;;;;;;15.43;13.70;;;;;;;17.44;100.00;93464.38;5052451;28;20650;-63
2022/11/23 09:21:09;;;;;;;15.70;13.43;;;;;;;17.63;100.00;93477.41;5070829;28;20275;-63
2022/11/23 09:23:35;;;;;;;15.90;12.25;;;;;;;17.67;100.00;93453.69;5070619;28;20628;-63
2022/11/23 09:26:02;;;;;;;13.82;12.05;;;;;;;17.57;100.00;93466.16;5070623;28;20542;-65
2022/11/23 09:28:28;;;;;;;17.42;12.40;;;;;;;17.71;100.00;93470.28;5070633;28;20203;-65
2022/11/23 09:30:55;;;;;;;12.50;10.48;;;;;;;16.54;100.00;93427.47;5070913;28;20653;-64
2022/11/23 09:33:22;;;;;;;14.32;10.30;;;;;;;17.25;100.00;93464.41;5070347;28;20201;-64
2022/11/23 09:36:02;;;;;;;13.98;10.10;;;;;;;17.68;100.00;93483.53;5070798;28;20205;-66
2022/11/23 09:38:28;;;;;;;12.68;10.40;;;;;;;17.70;98.85;93486.69;5070578;28;20181;-65
2022/11/23 09:41:36;;;;;;;11.70;9.85;;;;;;;17.53;98.73;93482.97;5070616;28;20232;-63
2022/11/23 09:44:07;;;;;;;11.40;10.07;;;;;;;17.65;97.52;93514.78;5070524;28;20216;-60
2022/11/23 09:46:57;;;;;;;13.38;9.68;;;;;;;17.41;80.94;93477.63;5070634;28;20216;-63
2022/11/23 09:49:37;;;;;;;10.02;8.93;;;;;;;16.87;78.84;93448.03;5070117;28;20209;-63
2022/11/23 09:52:03;;;;;;;10.77;9.25;;;;;;;17.16;80.39;93398.81;5070330;28;20188;-64
2022/11/23 09:54:36;;;;;;;15.32;9.73;;;;;;;17.09;79.74;93413.47;5070262;28;20205;-63
2022/11/23 09:57:03;;;;;;;11.60;9.48;;;;;;;17.72;78.70;93433.28;5070273;28;20268;-63
2022/11/23 09:59:39;;;;;;;10.88;8.90;;;;;;;18.18;77.62;93467.34;5069883;28;20274;-63
2022/11/23 10:02:15;;;;;;;9.90;7.68;;;;;;;18.51;75.67;93495.53;5070095;28;20561;-64
2022/11/23 10:04:42;;;;;;;8.63;6.68;;;;;;;18.75;74.34;93525.69;5070299;28;20212;-63
2022/11/23 10:07:34;;;;;;;11.73;8.70;;;;;;;18.80;73.45;93512.19;5069911;28;20252;-60
2022/11/23 10:10:05;;;;;;;11.75;8.02;;;;;;;18.99;72.96;93513.84;5034089;28;20286;-63
2022/11/23 10:12:30;;;;;;;9.50;7.70;;;;;;;18.92;72.98;93511.34;5070104;28;20196;-64
2022/11/23 10:15:14;;;;;;;9.30;7.57;;;;;;;18.65;73.92;93489.31;5070314;28;20221;-63
2022/11/23 10:17:58;;;;;;;6.80;5.47;;;;;;;18.03;74.93;93461.69;5073695;28;20187;-63
2022/11/23 10:20:41;;;;;;;5.57;4.10;;;;;;;17.35;75.94;93429.59;5073839;28;20235;-65
2022/11/23 10:23:20;;;;;;;7.05;3.92;;;;;;;16.77;78.75;93363.72;5073464;28;20264;-64
2022/11/23 10:25:49;;;;;;;3.65;2.78;;;;;;;16.83;78.58;93354.44;5073521;28;20228;-59
2022/11/23 10:28:18;;;;;;;5.82;3.83;;;;;;;16.08;80.24;93324.00;5073537;28;20676;-60
2022/11/23 10:30:56;;;;;;;3.25;2.95;;;;;;;15.72;82.94;93262.81;5073405;28;20283;-63
2022/11/23 10:33:40;;;;;;;3.90;3.50;;;;;;;15.15;86.80;93197.47;5073401;28;20221;-61
2022/11/23 10:36:09;;;;;;;4.43;3.85;;;;;;;14.89;88.32;93173.56;5072978;28;20582;-63
2022/11/23 10:38:35;;;;;;;11.13;5.13;;;;;;;14.82;88.88;93170.22;5073362;28;20690;-63
2022/11/23 10:41:01;;;;;;;33.22;8.55;;;;;;;14.79;91.34;93135.56;5072863;28;20211;-61
2022/11/23 10:43:40;;;;;;;8.68;4.65;;;;;;;14.85;90.45;93152.69;5072766;28;20196;-63
2022/11/23 10:46:37;;;;;;;5.95;4.07;;;;;;;14.73;91.54;93138.88;5073514;28;20189;-62
2022/11/23 10:49:14;;;;;;;4.57;3.53;;;;;;;14.54;93.69;93115.81;5072862;28;20224;-64
2022/11/23 10:51:51;;;;;;;9.05;7.13;;;;;;;13.92;94.43;93087.75;5080023;22;20705;-63
2022/11/23 10:54:27;;;;;;;7.57;5.47;;;;;;;13.53;98.28;93079.84;5072819;28;20265;-63
2022/11/23 10:56:53;;;;;;;11.25;6.10;;;;;;;13.51;99.07;93079.25;5072873;28;20176;-63
2022/11/23 10:59:26;;;;;;;7.57;5.10;;;;;;;13.78;97.67;93109.88;5073103;28;20265;-63
2022/11/23 11:02:21;;;;;;;7.28;5.53;;;;;;;13.84;97.05;93123.66;5072793;28;20196;-62
2022/11/23 11:04:48;;;;;;;9.77;6.60;;;;;;;13.68;98.21;93113.72;5055635;28;20277;-61
2022/11/23 11:07:28;;;;;;;15.57;7.95;;;;;;;13.33;100.00;93079.72;5072825;28;20250;-58
2022/11/23 11:09:57;;;;;;;10.37;8.33;;;;;;;13.22;100.00;93068.25;5072747;28;20212;-63
2022/11/23 11:12:25;;;;;;;10.40;6.80;;;;;;;13.34;100.00;93069.31;5072583;28;20196;-65
2022/11/23 11:15:01;;;;;;;8.27;6.10;;;;;;;13.45;100.00;93073.91;5054555;28;20274;-62
2022/11/23 11:17:33;;;;;;;7.13;5.13;;;;;;;13.79;100.00;93100.47;5072299;28;20532;-63
2022/11/23 11:20:21;;;;;;;7.60;5.60;;;;;;;13.95;100.00;93102.72;5072517;28;20232;-62
2022/11/23 11:22:47;;;;;;;9.13;7.10;;;;;;;13.81;98.80;93136.81;5072474;28;20291;-65
2022/11/23 11:25:30;;;;;;;10.57;7.90;;;;;;;13.66;100.00;93105.47;5072453;28;20295;-63